createdAt,value
2023-11-27T00:00:42.469Z,1.63
2023-11-27T00:03:44.629Z,1.62
2023-11-27T00:06:46.442Z,1.63
2023-11-27T00:09:48.227Z,1.49
2023-11-27T00:12:49.997Z,1.37
2023-11-27T00:15:51.769Z,1.39
2023-11-27T00:18:54.106Z,1.35
2023-11-27T00:21:55.934Z,1.48
2023-11-27T00:24:57.729Z,1.50
2023-11-27T00:27:59.433Z,1.63
2023-11-27T00:31:01.219Z,1.57
2023-11-27T00:34:03.043Z,1.52
2023-11-27T00:37:04.863Z,1.54
2023-11-27T00:40:07.275Z,1.53
2023-11-27T00:43:09.070Z,1.53
2023-11-27T00:46:11.341Z,1.56
2023-11-27T00:49:13.308Z,1.56
2023-11-27T00:52:15.296Z,1.57
2023-11-27T00:55:17.030Z,1.45
2023-11-27T00:58:18.812Z,1.48
2023-11-27T01:01:20.687Z,1.47
2023-11-27T01:04:22.840Z,1.45
2023-11-27T01:07:24.604Z,1.47
2023-11-27T01:10:26.300Z,1.54
2023-11-27T01:13:28.067Z,1.55
2023-11-27T01:16:30.458Z,1.44
2023-11-27T01:19:32.208Z,1.49
2023-11-27T01:22:33.842Z,1.48
2023-11-27T01:25:35.530Z,1.52
2023-11-27T01:28:37.559Z,1.45
2023-11-27T01:31:41.411Z,1.45
2023-11-27T01:34:43.039Z,1.41
2023-11-27T01:37:44.664Z,1.37
2023-11-27T01:40:47.152Z,1.36
2023-11-27T01:43:48.807Z,1.36
2023-11-27T01:46:50.442Z,1.28
2023-11-27T01:49:52.129Z,1.36
2023-11-27T01:52:53.732Z,1.23
2023-11-27T01:55:55.408Z,1.28
2023-11-27T01:58:58.231Z,1.28
2023-11-27T02:02:00.401Z,1.22
2023-11-27T02:05:02.185Z,1.28
2023-11-27T02:08:04.193Z,1.09
2023-11-27T02:11:06.022Z,1.11
2023-11-27T02:14:07.685Z,1.18
2023-11-27T02:17:09.385Z,1.27
2023-11-27T02:20:11.775Z,1.03
2023-11-27T02:23:17.453Z,0.99
2023-11-27T02:26:19.065Z,1.10
2023-11-27T02:29:20.675Z,1.11
2023-11-27T02:32:22.722Z,1.12
2023-11-27T02:35:24.380Z,0.98
2023-11-27T02:38:26.051Z,0.99
2023-11-27T02:41:28.059Z,0.99
2023-11-27T02:44:29.745Z,1.09
2023-11-27T02:47:31.396Z,1.08
2023-11-27T02:50:33.154Z,1.05
2023-11-27T02:53:34.865Z,0.97
2023-11-27T02:56:36.910Z,0.93
2023-11-27T02:59:38.535Z,0.91
2023-11-27T03:02:40.536Z,0.88
2023-11-27T03:05:42.225Z,0.85
2023-11-27T03:08:43.928Z,0.88
2023-11-27T03:11:45.519Z,0.84
2023-11-27T03:14:47.148Z,0.74
2023-11-27T03:17:48.889Z,0.74
2023-11-27T03:20:50.539Z,0.59
2023-11-27T03:23:52.145Z,0.58
2023-11-27T03:26:53.733Z,0.63
2023-11-27T03:29:55.371Z,0.59
2023-11-27T03:32:57.067Z,0.55
2023-11-27T03:35:58.905Z,0.38
2023-11-27T03:39:00.599Z,0.42
2023-11-27T03:42:02.200Z,0.40
2023-11-27T03:45:04.017Z,0.38
2023-11-27T03:48:08.379Z,0.32
2023-11-27T03:51:10.140Z,0.39
2023-11-27T03:54:14.638Z,0.32
2023-11-27T03:57:16.688Z,0.24
2023-11-27T04:00:18.647Z,0.32
2023-11-27T04:03:20.725Z,0.41
2023-11-27T04:06:23.579Z,0.44
2023-11-27T04:09:25.165Z,0.41
2023-11-27T04:12:26.758Z,0.44
2023-11-27T04:15:30.331Z,0.37
2023-11-27T04:18:31.973Z,0.36
2023-11-27T04:21:33.607Z,0.26
2023-11-27T04:24:35.267Z,0.25
2023-11-27T04:27:36.975Z,0.34
2023-11-27T04:30:39.001Z,0.15
2023-11-27T04:33:40.669Z,0.28
2023-11-27T04:36:42.505Z,0.34
2023-11-27T04:39:44.104Z,0.42
2023-11-27T04:42:45.817Z,0.35
2023-11-27T04:45:47.455Z,0.36
2023-11-27T04:48:49.363Z,0.42
2023-11-27T04:51:51.132Z,0.49
2023-11-27T04:54:52.878Z,0.49
2023-11-27T04:57:54.535Z,0.44
2023-11-27T05:00:56.219Z,0.37
2023-11-27T05:03:58.733Z,0.39
2023-11-27T05:07:01.550Z,0.50
2023-11-27T05:10:03.809Z,0.37
2023-11-27T05:13:05.981Z,0.31
2023-11-27T05:16:08.345Z,0.47
2023-11-27T05:19:10.133Z,0.47
2023-11-27T05:22:11.901Z,0.51
2023-11-27T05:25:14.190Z,0.45
2023-11-27T05:28:15.978Z,0.40
2023-11-27T05:31:18.573Z,0.46
2023-11-27T05:34:21.576Z,0.47
2023-11-27T05:37:23.325Z,0.43
2023-11-27T05:40:25.017Z,0.39
2023-11-27T05:43:26.872Z,0.55
2023-11-27T05:46:28.920Z,0.55
2023-11-27T05:49:33.526Z,0.59
2023-11-27T05:52:35.372Z,0.41
2023-11-27T05:55:37.691Z,0.57
2023-11-27T05:58:39.337Z,0.62
2023-11-27T06:01:41.029Z,0.44
2023-11-27T06:04:44.569Z,0.60
2023-11-27T06:07:46.836Z,0.63
2023-11-27T06:10:48.979Z,0.69
2023-11-27T06:13:50.625Z,0.77
2023-11-27T06:16:52.309Z,0.79
2023-11-27T06:19:53.965Z,0.85
2023-11-27T06:22:58.422Z,0.92
2023-11-27T06:26:00.865Z,0.88
2023-11-27T06:29:03.532Z,0.85
2023-11-27T06:32:05.143Z,0.98
2023-11-27T06:35:07.249Z,0.83
2023-11-27T06:38:08.928Z,0.95
2023-11-27T06:41:11.939Z,0.83
2023-11-27T06:44:19.061Z,0.84
2023-11-27T06:47:20.698Z,0.88
2023-11-27T06:50:22.332Z,0.92
2023-11-27T06:53:25.510Z,0.87
2023-11-27T06:56:30.580Z,0.91
2023-11-27T06:59:32.188Z,1.04
2023-11-27T07:02:34.444Z,1.03
2023-11-27T07:05:36.124Z,1.00
2023-11-27T07:08:38.557Z,1.07
2023-11-27T07:11:40.227Z,1.10
2023-11-27T07:14:41.961Z,1.02
2023-11-27T07:17:45.899Z,0.99
2023-11-27T07:20:47.765Z,1.07
2023-11-27T07:23:51.029Z,1.16
2023-11-27T07:26:52.668Z,1.20
2023-11-27T07:29:54.311Z,1.23
2023-11-27T07:32:57.432Z,1.36
2023-11-27T07:35:59.119Z,1.38
2023-11-27T07:39:00.791Z,1.41
2023-11-27T07:42:02.651Z,1.44
2023-11-27T07:45:06.179Z,1.47
2023-11-27T07:48:07.930Z,1.44
2023-11-27T07:51:09.900Z,1.52
2023-11-27T07:54:11.814Z,1.48
2023-11-27T07:57:13.626Z,1.51
2023-11-27T08:00:17.575Z,1.42
2023-11-27T08:03:19.259Z,1.57
2023-11-27T08:06:21.154Z,1.67
2023-11-27T08:09:23.101Z,1.78
2023-11-27T08:12:24.688Z,1.88
2023-11-27T08:15:26.644Z,1.83
2023-11-27T08:18:28.597Z,1.89
2023-11-27T08:21:30.251Z,2.02
2023-11-27T08:24:35.316Z,1.97
2023-11-27T08:27:39.986Z,2.01
2023-11-27T08:30:43.251Z,2.08
2023-11-27T08:33:45.042Z,2.24
2023-11-27T08:36:46.738Z,2.33
2023-11-27T08:39:48.348Z,2.51
2023-11-27T08:42:49.998Z,2.68
2023-11-27T08:45:51.653Z,2.71
2023-11-27T08:48:53.357Z,2.68
2023-11-27T08:51:55.687Z,2.84
2023-11-27T08:54:59.044Z,2.88
2023-11-27T08:58:04.410Z,3.03
2023-11-27T09:01:06.884Z,3.20
2023-11-27T09:04:10.282Z,3.33
2023-11-27T09:07:13.267Z,3.48
2023-11-27T09:10:14.910Z,3.71
2023-11-27T09:13:16.537Z,3.83
2023-11-27T09:16:18.244Z,3.85
2023-11-27T09:19:19.937Z,3.99
2023-11-27T09:22:22.786Z,3.85
2023-11-27T09:25:25.557Z,4.16
2023-11-27T09:28:28.440Z,4.25
2023-11-27T09:31:30.375Z,4.14
2023-11-27T09:34:32.458Z,4.03
2023-11-27T09:37:36.663Z,4.18
2023-11-27T09:40:41.497Z,4.20
2023-11-27T09:43:43.223Z,4.49
2023-11-27T09:46:45.948Z,4.86
2023-11-27T09:49:49.024Z,5.13
2023-11-27T09:53:03.543Z,5.07
2023-11-27T09:56:07.416Z,5.40
2023-11-27T09:59:09.418Z,5.11
2023-11-27T10:02:11.877Z,5.22
2023-11-27T10:05:13.458Z,4.97
2023-11-27T10:08:15.116Z,4.98
2023-11-27T10:11:18.014Z,4.91
2023-11-27T10:17:25.680Z,4.91
2023-11-27T10:20:27.595Z,4.65
2023-11-27T10:23:29.223Z,4.64
2023-11-27T10:26:31.996Z,4.70
2023-11-27T10:29:34.710Z,4.49
2023-11-27T10:32:36.625Z,4.37
2023-11-27T10:35:38.336Z,4.30
2023-11-27T10:38:40.038Z,4.50
2023-11-27T10:41:46.068Z,4.49
2023-11-27T10:44:49.801Z,4.52
2023-11-27T10:47:53.086Z,4.63
2023-11-27T10:50:54.717Z,4.62
2023-11-27T10:53:56.505Z,4.68
2023-11-27T10:56:58.259Z,4.58
2023-11-27T10:59:59.879Z,4.63
2023-11-27T11:03:04.376Z,4.45
2023-11-27T11:06:08.259Z,4.27
2023-11-27T11:09:13.395Z,4.06
2023-11-27T11:12:24.683Z,3.73
2023-11-27T11:15:41.540Z,3.81
2023-11-27T11:19:01.902Z,3.49
2023-11-27T11:22:11.871Z,3.54
2023-11-27T11:25:22.641Z,3.46
2023-11-27T11:28:30.806Z,3.43
2023-11-27T11:31:39.787Z,3.58
2023-11-27T11:34:48.156Z,3.53
2023-11-27T11:37:51.161Z,3.43
2023-11-27T11:40:53.218Z,3.42
2023-11-27T11:43:57.139Z,3.25
2023-11-27T11:46:58.907Z,2.98
2023-11-27T11:50:25.783Z,2.91
2023-11-27T11:53:31.364Z,2.75
2023-11-27T11:56:36.027Z,2.70
2023-11-27T11:59:40.680Z,2.76
2023-11-27T12:02:42.772Z,2.71
2023-11-27T12:05:54.969Z,2.69
2023-11-27T12:08:59.892Z,2.62
2023-11-27T12:12:01.867Z,2.47
2023-11-27T12:15:10.518Z,2.55
2023-11-27T12:18:14.535Z,2.61
2023-11-27T12:21:18.625Z,2.64
2023-11-27T12:24:20.694Z,2.53
2023-11-27T12:27:23.924Z,2.59
2023-11-27T12:30:25.693Z,2.57
2023-11-27T12:33:28.842Z,2.56
2023-11-27T12:36:31.940Z,2.63
2023-11-27T12:39:34.202Z,2.51
2023-11-27T12:42:37.376Z,2.28
2023-11-27T12:45:39.129Z,2.14
2023-11-27T12:48:46.778Z,2.16
2023-11-27T12:51:57.038Z,2.18
2023-11-27T12:54:58.996Z,2.12
2023-11-27T12:58:00.825Z,2.00
2023-11-27T13:01:02.896Z,2.07
2023-11-27T13:04:05.782Z,2.08
2023-11-27T13:07:10.965Z,2.03
2023-11-27T13:10:13.269Z,2.13
2023-11-27T13:13:22.612Z,1.98
2023-11-27T13:16:24.477Z,1.81
2023-11-27T13:19:26.409Z,1.89
2023-11-27T13:22:33.718Z,1.98
2023-11-27T13:25:38.793Z,1.94
2023-11-27T13:28:44.122Z,2.08
2023-11-27T13:31:45.973Z,2.06
2023-11-27T13:34:58.554Z,2.01
2023-11-27T13:38:01.886Z,1.93
2023-11-27T13:41:03.564Z,1.99
2023-11-27T13:44:09.177Z,2.02
2023-11-27T13:47:18.455Z,2.00
2023-11-27T13:50:20.963Z,1.95
2023-11-27T13:53:25.756Z,1.88
2023-11-27T13:56:31.500Z,1.88
2023-11-27T13:59:41.598Z,1.90
2023-11-27T14:02:43.412Z,1.88
2023-11-27T14:05:49.447Z,1.77
2023-11-27T14:09:04.425Z,1.73
2023-11-27T14:12:11.296Z,1.76
2023-11-27T14:15:22.913Z,1.73
2023-11-27T14:18:24.581Z,1.67
2023-11-27T14:21:52.490Z,1.71
2023-11-27T14:24:54.157Z,1.58
2023-11-27T14:28:18.515Z,1.50
2023-11-27T14:31:23.534Z,1.55
2023-11-27T14:34:28.973Z,1.46
2023-11-27T14:37:33.910Z,1.41
2023-11-27T14:40:36.112Z,1.38
2023-11-27T14:43:37.968Z,1.40
2023-11-27T14:46:40.157Z,1.35
2023-11-27T14:49:44.285Z,1.28
2023-11-27T14:52:46.261Z,1.29
2023-11-27T14:55:47.945Z,1.19
2023-11-27T14:58:49.924Z,1.15
2023-11-27T15:01:51.999Z,1.15
2023-11-27T15:04:53.876Z,1.12
2023-11-27T15:07:59.733Z,1.20
2023-11-27T15:11:03.218Z,1.17
2023-11-27T15:14:05.312Z,1.11
2023-11-27T15:17:09.104Z,0.96
2023-11-27T15:20:14.255Z,1.03
2023-11-27T15:23:15.906Z,1.12
2023-11-27T15:26:17.941Z,1.14
2023-11-27T15:29:19.984Z,1.18
2023-11-27T15:32:21.596Z,1.31
2023-11-27T15:35:26.193Z,1.31
2023-11-27T15:38:27.889Z,1.30
2023-11-27T15:41:30.299Z,1.39
2023-11-27T15:44:32.664Z,1.34
2023-11-27T15:47:34.564Z,1.32
2023-11-27T15:50:37.867Z,1.44
2023-11-27T15:53:39.628Z,1.44
2023-11-27T15:56:41.752Z,1.52
2023-11-27T15:59:44.539Z,1.35
2023-11-27T16:02:46.856Z,1.53
2023-11-27T16:05:48.622Z,1.57
2023-11-27T16:08:50.290Z,1.47
2023-11-27T16:11:52.456Z,1.57
2023-11-27T16:14:54.227Z,1.53
2023-11-27T16:18:00.874Z,1.53
2023-11-27T16:21:03.603Z,1.55
2023-11-27T16:24:07.013Z,1.61
2023-11-27T16:27:08.874Z,1.57
2023-11-27T16:30:11.066Z,1.58
2023-11-27T16:33:12.985Z,1.66
2023-11-27T16:36:14.898Z,1.70
2023-11-27T16:39:18.767Z,1.71
2023-11-27T16:42:20.494Z,1.71
2023-11-27T16:45:24.152Z,1.62
2023-11-27T16:48:29.441Z,1.67
2023-11-27T16:51:35.111Z,1.59
2023-11-27T16:54:37.428Z,1.69
2023-11-27T16:57:40.071Z,1.63
2023-11-27T17:00:41.665Z,1.62
2023-11-27T17:03:44.300Z,1.70
2023-11-27T17:06:47.390Z,1.73
2023-11-27T17:09:50.359Z,1.65
2023-11-27T17:12:52.015Z,1.64
2023-11-27T17:15:54.048Z,1.70
2023-11-27T17:18:57.121Z,1.69
2023-11-27T17:21:58.906Z,1.74
2023-11-27T17:25:01.135Z,1.59
2023-11-27T17:28:02.825Z,1.52
2023-11-27T17:31:05.043Z,1.44
2023-11-27T17:34:07.295Z,1.53
2023-11-27T17:37:09.153Z,1.44
2023-11-27T17:40:15.056Z,1.54
2023-11-27T17:43:18.592Z,1.55
2023-11-27T17:46:21.092Z,1.68
2023-11-27T17:49:22.946Z,1.59
2023-11-27T17:52:24.890Z,1.54
2023-11-27T17:55:39.012Z,1.59
2023-11-27T17:58:47.064Z,1.59
2023-11-27T18:01:49.391Z,1.53
2023-11-27T18:04:51.141Z,1.57
2023-11-27T18:07:53.623Z,1.67
2023-11-27T18:10:55.356Z,1.59
2023-11-27T18:13:57.578Z,1.70
2023-11-27T18:17:00.744Z,1.67
2023-11-27T18:20:05.495Z,1.53
2023-11-27T18:23:09.680Z,1.63
2023-11-27T18:26:12.786Z,1.62
2023-11-27T18:29:14.666Z,1.55
2023-11-27T18:32:19.359Z,1.62
2023-11-27T18:35:21.209Z,1.64
2023-11-27T18:38:23.443Z,1.65
2023-11-27T18:41:29.202Z,1.63
2023-11-27T18:44:30.869Z,1.67
2023-11-27T18:47:32.775Z,1.64
2023-11-27T18:50:34.829Z,1.46
2023-11-27T18:53:36.461Z,1.61
2023-11-27T18:56:38.671Z,1.63
2023-11-27T18:59:40.580Z,1.42
2023-11-27T19:02:43.329Z,1.62
2023-11-27T19:05:47.097Z,1.53
2023-11-27T19:08:51.455Z,1.44
2023-11-27T19:11:53.095Z,1.55
2023-11-27T19:14:55.135Z,1.59
2023-11-27T19:17:57.168Z,1.50
2023-11-27T19:20:59.105Z,1.35
2023-11-27T19:24:00.900Z,1.44
2023-11-27T19:27:04.960Z,1.57
2023-11-27T19:30:09.467Z,1.53
2023-11-27T19:33:14.795Z,1.41
2023-11-27T19:36:26.397Z,1.44
2023-11-27T19:39:30.832Z,1.44
2023-11-27T19:42:32.600Z,1.47
2023-11-27T19:45:39.975Z,1.43
2023-11-27T19:48:44.224Z,1.36
2023-11-27T19:51:47.107Z,1.43
2023-11-27T19:54:49.025Z,1.39
2023-11-27T19:57:52.444Z,1.33
2023-11-27T20:00:54.142Z,1.33
2023-11-27T20:03:56.171Z,1.39
2023-11-27T20:06:57.936Z,1.46
2023-11-27T20:09:59.628Z,1.49
2023-11-27T20:13:01.327Z,1.46
2023-11-27T20:16:04.698Z,1.53
2023-11-27T20:19:07.820Z,1.56
2023-11-27T20:22:12.671Z,1.61
2023-11-27T20:25:14.458Z,1.52
2023-11-27T20:28:16.173Z,1.62
2023-11-27T20:31:29.684Z,1.50
2023-11-27T20:34:38.284Z,1.46
2023-11-27T20:37:41.338Z,1.63
2023-11-27T20:40:43.070Z,1.59
2023-11-27T20:43:44.726Z,1.57
2023-11-27T20:46:46.989Z,1.61
2023-11-27T20:49:50.117Z,1.61
2023-11-27T20:52:52.876Z,1.42
2023-11-27T20:55:56.659Z,1.31
2023-11-27T20:58:59.219Z,1.31
2023-11-27T21:02:05.457Z,1.30
2023-11-27T21:05:11.312Z,1.35
2023-11-27T21:08:13.403Z,1.44
2023-11-27T21:11:15.068Z,1.46
2023-11-27T21:14:18.669Z,1.55
2023-11-27T21:17:24.232Z,1.58
2023-11-27T21:20:26.655Z,1.68
2023-11-27T21:23:28.744Z,1.62
2023-11-27T21:26:30.649Z,1.64
2023-11-27T21:29:33.293Z,1.61
2023-11-27T21:32:35.022Z,1.61
2023-11-27T21:35:36.708Z,1.60
2023-11-27T21:38:38.446Z,1.56
2023-11-27T21:41:40.160Z,1.62
2023-11-27T21:44:42.184Z,1.61
2023-11-27T21:47:45.256Z,1.68
2023-11-27T21:50:47.160Z,1.60
2023-11-27T21:53:49.640Z,1.57
2023-11-27T21:56:51.354Z,1.55
2023-11-27T21:59:54.582Z,1.55
2023-11-27T22:02:56.410Z,1.45
2023-11-27T22:06:00.214Z,1.50
2023-11-27T22:09:02.947Z,1.57
2023-11-27T22:12:04.553Z,1.60
2023-11-27T22:15:06.685Z,1.41
2023-11-27T22:18:08.352Z,1.57
2023-11-27T22:21:10.083Z,1.58
2023-11-27T22:24:11.855Z,1.52
2023-11-27T22:27:13.610Z,1.57
2023-11-27T22:30:15.373Z,1.45
2023-11-27T22:33:16.994Z,1.68
2023-11-27T22:36:19.167Z,1.73
2023-11-27T22:39:20.815Z,1.61
2023-11-27T22:42:22.407Z,1.56
2023-11-27T22:45:24.098Z,1.42
2023-11-27T22:48:30.626Z,1.47
2023-11-27T22:51:33.039Z,1.55
2023-11-27T22:54:34.783Z,1.63
2023-11-27T22:57:36.465Z,1.61
2023-11-27T23:00:38.359Z,1.52
2023-11-27T23:03:40.409Z,1.54
2023-11-27T23:06:42.103Z,1.49
2023-11-27T23:09:43.706Z,1.49
2023-11-27T23:12:45.360Z,1.58
2023-11-27T23:15:47.157Z,1.52
2023-11-27T23:18:48.989Z,1.56
2023-11-27T23:21:52.492Z,1.59
2023-11-27T23:24:54.241Z,1.63
2023-11-27T23:27:55.850Z,1.68
2023-11-27T23:30:57.631Z,1.66
2023-11-27T23:33:59.458Z,1.76
2023-11-27T23:37:01.098Z,1.81
2023-11-27T23:40:02.801Z,1.89
2023-11-27T23:43:04.567Z,1.85
2023-11-27T23:46:07.294Z,1.93
2023-11-27T23:49:09.209Z,1.85
2023-11-27T23:52:10.942Z,1.91
2023-11-27T23:55:12.590Z,1.94
2023-11-27T23:58:14.333Z,1.93
